Time;durP1;ratioP1;P1;durP2;ratioP2;P2;SDS_P1;SDS_P2;PMS_P1;PMS_P2;Temp;Humidity;BMP_temperature;BMP_pressure;BME280_temperature;BME280_humidity;BME280_pressure;Samples;Min_cycle;Max_cycle;Signal;HPM_P1;HPM_P2
2023/10/27 00:02:24;;;;;;;6.47;2.57;;;11.70;91.30;;;11.02;92.21;95739.97;4951832;28;20512;-78
2023/10/27 00:04:51;;;;;;;6.87;2.90;;;11.70;91.20;;;11.07;92.38;95743.72;4972164;28;20448;-77
2023/10/27 00:07:20;;;;;;;8.13;2.43;;;11.60;91.10;;;10.92;94.34;95726.47;4949729;28;20477;-78
2023/10/27 00:09:48;;;;;;;7.70;2.30;;;11.60;91.60;;;10.95;93.63;95754.84;4952159;28;21021;-76
2023/10/27 00:12:15;;;;;;;9.00;2.43;;;11.60;91.60;;;10.96;94.84;95743.75;4953710;28;20971;-78
2023/10/27 00:14:42;;;;;;;8.23;2.67;;;11.50;92.00;;;10.76;95.73;95741.88;4971601;28;20454;-76
2023/10/27 00:17:09;;;;;;;10.13;2.40;;;11.50;92.30;;;10.56;95.75;95699.53;4971530;28;20456;-77
2023/10/27 00:19:37;;;;;;;10.60;2.97;;;11.40;92.70;;;10.92;95.08;95745.38;4967354;28;20634;-75
2023/10/27 00:22:05;;;;;;;4.30;2.13;;;11.40;92.70;;;10.94;95.14;95735.09;4976008;28;20455;-76
2023/10/27 00:24:33;;;;;;;9.40;2.37;;;11.40;93.00;;;10.83;94.77;95720.00;4971028;28;20483;-78
2023/10/27 00:27:01;;;;;;;7.90;2.60;;;11.40;92.90;;;11.02;94.84;95739.13;4947778;28;20836;-77
2023/10/27 00:29:27;;;;;;;7.33;2.83;;;11.40;93.10;;;11.01;94.66;95741.03;4935403;28;20867;-77
2023/10/27 00:31:55;;;;;;;4.73;2.40;;;11.40;92.70;;;10.94;94.82;95748.59;4959682;28;20811;-77
2023/10/27 00:34:22;;;;;;;5.30;2.13;;;11.40;92.70;;;10.66;94.15;95723.81;4969151;28;20444;-77
2023/10/27 00:36:49;;;;;;;8.17;2.40;;;11.40;92.20;;;10.79;95.56;95735.13;4961954;28;20453;-78
2023/10/27 00:39:16;;;;;;;6.17;2.70;;;11.40;92.90;;;10.90;95.89;95751.03;4965517;28;21213;-76
2023/10/27 00:41:45;;;;;;;10.70;2.63;;;11.40;93.00;;;10.79;96.90;95748.63;4949532;28;20449;-79
2023/10/27 00:44:12;;;;;;;6.17;2.67;;;11.40;93.10;;;10.65;97.28;95735.69;4963294;28;20460;-79
2023/10/27 00:46:39;;;;;;;6.53;2.90;;;11.30;93.60;;;10.96;96.37;95757.25;4947176;28;20555;-77
2023/10/27 00:49:08;;;;;;;12.77;2.43;;;11.40;93.60;;;10.97;95.60;95761.56;4969692;28;20462;-78
2023/10/27 00:51:35;;;;;;;10.17;2.63;;;11.40;93.30;;;10.65;97.18;95721.38;4968860;28;21203;-75
2023/10/27 00:54:02;;;;;;;10.30;3.10;;;11.40;93.90;;;10.85;97.38;95771.88;4963240;28;20517;-78
2023/10/27 00:56:30;;;;;;;4.23;2.47;;;11.40;93.80;;;10.79;97.38;95764.84;4947110;28;20454;-78
2023/10/27 00:58:59;;;;;;;8.77;2.63;;;11.30;94.00;;;10.74;98.07;95752.97;4958836;28;20465;-77
2023/10/27 01:01:27;;;;;;;9.40;2.60;;;11.30;94.20;;;10.82;97.52;95756.19;4966724;28;20484;-76
2023/10/27 01:03:55;;;;;;;9.07;2.70;;;11.30;94.30;;;10.62;98.38;95736.22;4947570;28;21110;-77
2023/10/27 01:06:22;;;;;;;4.67;2.27;;;11.30;94.40;;;10.60;99.08;95765.41;4966506;28;20476;-76
2023/10/27 01:08:50;;;;;;;10.50;2.97;;;11.20;94.60;;;10.65;98.91;95762.69;4951636;28;20489;-76
2023/10/27 01:11:19;;;;;;;7.23;3.17;;;11.20;94.90;;;10.59;99.53;95761.09;4968901;28;20468;-75
2023/10/27 01:13:50;;;;;;;10.60;3.30;;;11.10;95.20;;;10.40;100.00;95750.81;4968380;28;20449;-75
2023/10/27 01:16:19;;;;;;;12.50;3.30;;;11.00;95.20;;;10.47;100.00;95764.06;4959954;28;20545;-76
2023/10/27 01:18:46;;;;;;;7.53;2.97;;;11.00;95.60;;;10.42;100.00;95762.16;4955278;28;20459;-75
2023/10/27 01:21:13;;;;;;;13.73;3.03;;;11.00;95.90;;;10.09;100.00;95696.81;4957427;28;20454;-75
2023/10/27 01:23:42;;;;;;;7.67;3.20;;;11.00;96.20;;;10.44;100.00;95754.59;4968304;28;20808;-75
2023/10/27 01:26:09;;;;;;;8.63;2.40;;;10.90;96.80;;;10.16;100.00;95755.88;4960128;28;20885;-75
2023/10/27 01:28:37;;;;;;;9.70;3.23;;;10.80;97.10;;;10.21;100.00;95758.63;4965642;28;20452;-77
2023/10/27 01:31:04;;;;;;;7.63;3.37;;;10.80;97.60;;;10.21;100.00;95758.63;4971262;28;20441;-78
2023/10/27 01:33:32;;;;;;;10.93;2.83;;;10.70;98.20;;;10.29;100.00;95754.56;4972914;28;20453;-77
2023/10/27 01:35:59;;;;;;;7.50;2.80;;;10.80;99.90;;;10.23;100.00;95748.34;4947639;28;20493;-77
2023/10/27 01:38:26;;;;;;;6.93;2.53;;;10.80;99.50;;;10.05;100.00;95728.91;4967173;28;20450;-77
2023/10/27 01:40:55;;;;;;;12.87;3.77;;;10.70;99.90;;;10.16;100.00;95751.31;4953843;28;20899;-79
2023/10/27 01:43:22;;;;;;;12.10;2.93;;;10.70;99.90;;;10.32;100.00;95751.31;4942650;28;20454;-78
2023/10/27 01:45:49;;;;;;;10.30;3.20;;;10.80;99.90;;;10.23;100.00;95750.22;4953374;28;20455;-79
2023/10/27 01:48:17;;;;;;;12.20;2.90;;;10.80;99.90;;;10.04;100.00;95748.88;4966409;28;20456;-76
2023/10/27 01:50:44;;;;;;;7.93;3.30;;;10.70;99.90;;;10.09;100.00;95750.78;4959462;28;20523;-77
2023/10/27 01:53:11;;;;;;;10.63;3.10;;;10.60;99.90;;;10.01;100.00;95744.03;4956151;28;20445;-77
2023/10/27 01:55:39;;;;;;;10.87;2.83;;;10.60;99.90;;;10.08;100.00;95741.03;4967284;28;20457;-78
2023/10/27 01:58:07;;;;;;;8.37;3.00;;;10.60;99.90;;;10.06;100.00;95745.91;4957810;28;20553;-78
2023/10/27 02:00:36;;;;;;;10.60;3.00;;;10.60;99.90;;;10.20;100.00;95741.59;4970494;28;20445;-79
2023/10/27 02:03:03;;;;;;;9.10;3.63;;;10.60;99.90;;;10.03;100.00;95741.88;4948410;28;20461;-78
2023/10/27 02:05:30;;;;;;;8.53;3.10;;;10.60;99.90;;;10.03;100.00;95739.16;4969354;28;20457;-79
2023/10/27 02:07:58;;;;;;;6.93;3.40;;;10.60;99.90;;;10.01;100.00;95732.41;4970471;28;20477;-80
2023/10/27 02:10:25;;;;;;;11.90;4.27;;;10.60;99.90;;;10.01;100.00;95732.41;4980311;28;20465;-78
2023/10/27 02:12:53;;;;;;;11.30;3.00;;;10.60;99.90;;;9.66;100.00;95688.94;4967447;28;20461;-78
2023/10/27 02:15:21;;;;;;;15.17;3.13;;;10.50;99.90;;;9.83;100.00;95729.16;4955381;28;20453;-79
2023/10/27 02:17:48;;;;;;;9.83;3.30;;;10.50;99.90;;;9.92;100.00;95724.03;4970374;28;20472;-79
2023/10/27 02:20:16;;;;;;;10.10;3.00;;;10.50;99.90;;;9.94;100.00;95729.97;4979990;28;20485;-78
2023/10/27 02:22:43;;;;;;;10.83;3.60;;;10.50;99.90;;;9.96;100.00;95719.72;4967170;28;20476;-72
2023/10/27 02:25:10;;;;;;;9.20;3.57;;;10.50;99.90;;;9.63;100.00;95676.81;4955208;28;20927;-73
2023/10/27 02:27:40;;;;;;;10.93;3.20;;;10.50;99.90;;;9.88;100.00;95723.75;4973575;28;20511;-73
2023/10/27 02:30:09;;;;;;;9.83;3.30;;;10.50;99.90;;;9.85;100.00;95728.88;4967751;28;20462;-72
2023/10/27 02:32:38;;;;;;;11.00;2.63;;;10.40;99.90;;;9.97;100.00;95723.25;4970318;28;20970;-72
2023/10/27 02:35:06;;;;;;;12.63;3.20;;;10.40;99.90;;;10.00;100.00;95728.09;4952747;28;20550;-72
2023/10/27 02:37:33;;;;;;;9.00;2.70;;;10.40;99.90;;;10.05;100.00;95728.91;4971184;28;20800;-73
2023/10/27 02:40:00;;;;;;;13.37;3.03;;;10.50;99.90;;;10.00;100.00;95730.78;4958389;28;20460;-71
2023/10/27 02:42:27;;;;;;;12.67;3.40;;;10.40;99.90;;;9.89;100.00;95708.41;4947676;28;20509;-71
2023/10/27 02:44:54;;;;;;;7.13;2.87;;;10.50;99.90;;;9.94;100.00;95723.78;4954334;28;20445;-72
2023/10/27 02:47:23;;;;;;;9.57;3.03;;;10.40;99.90;;;9.80;100.00;95727.00;4966417;28;20485;-72
2023/10/27 02:49:51;;;;;;;8.37;3.40;;;10.40;99.90;;;9.67;100.00;95716.72;4961756;28;20460;-72
2023/10/27 02:52:18;;;;;;;14.63;3.30;;;10.40;99.90;;;9.78;100.00;95718.34;4962055;28;20896;-73
2023/10/27 02:54:46;;;;;;;12.00;3.50;;;10.40;99.90;;;9.74;100.00;95707.28;4956541;28;20461;-71
2023/10/27 02:57:13;;;;;;;9.50;3.03;;;10.30;99.90;;;9.73;100.00;95712.94;4967387;28;20515;-71
2023/10/27 02:59:40;;;;;;;7.10;3.43;;;10.30;99.90;;;9.75;100.00;95708.91;4969871;28;20458;-72
2023/10/27 03:02:08;;;;;;;9.63;3.10;;;10.30;99.90;;;9.72;100.00;95719.41;4963059;28;20955;-71
2023/10/27 03:04:35;;;;;;;8.43;3.80;;;10.30;99.90;;;9.64;100.00;95712.66;4970015;28;20456;-72
2023/10/27 03:07:05;;;;;;;10.40;3.50;;;10.30;99.90;;;9.74;100.00;95714.56;4968693;28;20535;-72
2023/10/27 03:09:32;;;;;;;14.73;3.33;;;10.30;99.90;;;9.80;100.00;95716.22;4963025;28;20470;-72
2023/10/27 03:11:58;;;;;;;13.13;3.97;;;10.40;99.90;;;9.74;100.00;95714.56;4965933;28;20465;-72
2023/10/27 03:14:25;;;;;;;11.80;3.80;;;10.40;99.90;;;9.77;100.00;95730.19;4954936;28;20459;-72
2023/10/27 03:16:52;;;;;;;10.87;3.40;;;10.30;99.90;;;9.69;100.00;95728.03;4962358;28;20466;-72
2023/10/27 03:19:19;;;;;;;9.40;3.40;;;10.30;99.90;;;9.75;100.00;95730.47;4964731;28;20449;-71
2023/10/27 03:21:47;;;;;;;17.30;3.63;;;10.30;99.90;;;9.71;100.00;95736.66;4969433;28;20516;-72
2023/10/27 03:24:15;;;;;;;7.60;3.90;;;10.30;99.90;;;9.62;100.00;95725.59;4975050;28;20461;-72
2023/10/27 03:26:43;;;;;;;13.83;3.60;;;10.30;99.90;;;9.47;100.00;95723.66;4972310;28;20964;-72
2023/10/27 03:29:10;;;;;;;9.93;3.20;;;10.20;99.90;;;9.58;100.00;95728.00;4968438;28;20527;-72
2023/10/27 03:31:37;;;;;;;10.63;3.53;;;10.20;99.90;;;9.62;100.00;95728.28;4967807;28;20443;-72
2023/10/27 03:34:05;;;;;;;12.00;3.67;;;10.30;99.90;;;9.70;100.00;95729.66;4968974;28;20481;-73
2023/10/27 03:36:32;;;;;;;12.93;3.40;;;10.30;99.90;;;9.76;100.00;95736.66;4966114;28;20560;-71
2023/10/27 03:38:59;;;;;;;12.70;3.93;;;10.30;99.90;;;9.64;100.00;95739.63;4964058;28;20955;-72
2023/10/27 03:41:28;;;;;;;15.37;3.90;;;10.30;99.90;;;9.64;100.00;95735.03;4967082;28;20484;-71
2023/10/27 03:43:55;;;;;;;12.67;3.53;;;10.30;99.90;;;9.74;100.00;95722.66;4965230;28;20551;-72
2023/10/27 03:46:23;;;;;;;8.97;3.43;;;10.30;99.90;;;9.73;100.00;95732.63;4967587;28;20494;-71
2023/10/27 03:48:50;;;;;;;15.13;4.00;;;10.30;99.90;;;9.77;100.00;95732.91;4966974;28;20453;-71
2023/10/27 03:51:17;;;;;;;12.60;4.30;;;10.40;99.90;;;9.70;100.00;95735.03;4968248;28;20939;-73
2023/10/27 03:53:44;;;;;;;11.47;4.27;;;10.40;99.90;;;9.91;100.00;95723.22;4971727;28;20506;-73
2023/10/27 03:56:11;;;;;;;12.70;3.80;;;10.40;99.90;;;9.84;100.00;95709.19;4948624;28;21366;-72
2023/10/27 03:58:40;;;;;;;13.20;4.60;;;10.40;99.90;;;9.87;100.00;95711.34;4967607;28;20449;-72
2023/10/27 04:01:09;;;;;;;9.03;3.97;;;10.40;99.90;;;9.88;100.00;95710.28;4950045;28;20512;-72
2023/10/27 04:03:36;;;;;;;9.80;4.50;;;10.40;99.90;;;9.88;100.00;95706.78;4948545;28;20450;-73
2023/10/27 04:06:04;;;;;;;13.37;4.90;;;10.40;99.90;;;9.81;100.00;95708.91;4955928;28;20916;-73
2023/10/27 04:08:32;;;;;;;12.33;4.37;;;10.40;99.90;;;9.76;100.00;95705.13;4970502;28;20481;-73
2023/10/27 04:10:59;;;;;;;13.23;4.43;;;10.30;99.90;;;9.72;100.00;95697.84;4970786;28;20459;-72
2023/10/27 04:13:26;;;;;;;12.30;4.00;;;10.30;99.90;;;9.72;100.00;95700.53;4951868;28;20784;-72
2023/10/27 04:15:55;;;;;;;11.40;4.00;;;10.30;99.90;;;9.79;100.00;95695.72;4966489;28;20460;-71
2023/10/27 04:18:22;;;;;;;9.90;4.20;;;10.30;99.90;;;9.80;100.00;95700.03;4947699;28;20451;-72
2023/10/27 04:20:49;;;;;;;10.57;4.13;;;10.30;99.90;;;9.73;100.00;95707.53;4958015;28;21101;-72
2023/10/27 04:23:16;;;;;;;15.97;5.33;;;10.30;99.90;;;9.83;100.00;95712.97;4964358;28;21014;-70
2023/10/27 04:25:44;;;;;;;11.27;4.17;;;10.40;99.90;;;9.83;100.00;95715.66;4954743;28;21000;-71
2023/10/27 04:28:11;;;;;;;10.23;4.17;;;10.40;99.90;;;9.90;100.00;95718.91;4963143;28;20554;-71
2023/10/27 04:30:38;;;;;;;11.30;4.50;;;10.40;99.90;;;9.84;100.00;95711.88;4961134;28;20941;-73
2023/10/27 04:33:09;;;;;;;13.57;5.93;;;10.40;99.90;;;9.41;100.00;95646.56;4971599;28;21009;-72
2023/10/27 04:35:36;;;;;;;11.27;5.20;;;10.40;99.90;;;9.81;100.00;95712.44;4966086;28;20897;-73
2023/10/27 04:38:04;;;;;;;9.60;5.40;;;10.40;99.90;;;9.72;100.00;95703.22;4950132;28;20462;-72
2023/10/27 04:40:34;;;;;;;13.77;6.03;;;10.40;99.90;;;9.81;100.00;95700.81;4945100;28;20552;-72
2023/10/27 04:43:01;;;;;;;13.83;5.93;;;10.40;99.90;;;9.87;100.00;95695.16;4970687;28;20489;-73
2023/10/27 04:45:28;;;;;;;14.13;5.67;;;10.40;99.90;;;9.92;100.00;95686.28;4950809;28;20465;-72
2023/10/27 04:47:55;;;;;;;13.13;4.67;;;10.40;99.90;;;9.99;100.00;95694.09;4965254;28;20482;-72
2023/10/27 04:50:24;;;;;;;9.10;5.07;;;10.50;99.90;;;9.90;100.00;95691.13;4969526;28;20530;-72
2023/10/27 04:52:51;;;;;;;10.00;4.73;;;10.50;99.90;;;9.88;100.00;95696.78;4949891;28;20982;-73
2023/10/27 04:55:19;;;;;;;17.20;5.70;;;10.40;99.90;;;9.77;100.00;95689.75;4945037;28;20845;-73
2023/10/27 04:57:47;;;;;;;9.47;4.77;;;10.40;99.90;;;9.77;100.00;95701.34;4967029;28;20942;-74
2023/10/27 05:00:14;;;;;;;10.00;5.00;;;10.40;99.90;;;9.80;100.00;95710.00;4954135;28;20442;-76
2023/10/27 05:02:42;;;;;;;12.70;4.60;;;10.40;99.90;;;9.81;100.00;95715.13;4963165;28;20471;-74
2023/10/27 05:05:09;;;;;;;8.57;4.63;;;10.40;99.90;;;9.82;100.00;95710.53;4966877;28;20478;-74
2023/10/27 05:07:38;;;;;;;9.87;3.97;;;10.50;99.90;;;9.77;100.00;95706.75;4965764;28;20476;-74
2023/10/27 05:10:07;;;;;;;12.33;4.67;;;10.40;99.90;;;9.96;100.00;95705.44;4966146;28;20532;-74
2023/10/27 05:12:36;;;;;;;14.43;4.77;;;10.50;99.90;;;10.23;100.00;95697.09;4965379;28;20468;-74
2023/10/27 05:15:04;;;;;;;10.27;4.20;;;10.60;99.90;;;9.95;100.00;95698.44;4969909;28;20462;-74
2023/10/27 05:17:34;;;;;;;11.07;4.37;;;10.60;99.90;;;9.96;100.00;95702.75;4965588;28;20546;-72
2023/10/27 05:20:03;;;;;;;15.60;5.00;;;10.50;99.90;;;9.85;100.00;95704.59;4963475;28;20564;-72
2023/10/27 05:22:31;;;;;;;13.53;4.70;;;10.50;99.90;;;9.80;100.00;95702.72;4965829;28;20577;-72
2023/10/27 05:25:03;;;;;;;8.17;4.97;;;10.40;99.90;;;9.83;100.00;95718.38;4954806;28;20462;-71
2023/10/27 05:27:31;;;;;;;10.27;4.73;;;10.50;99.90;;;9.88;100.00;95718.34;4973544;28;20475;-73
2023/10/27 05:29:58;;;;;;;6.00;4.37;;;10.50;99.90;;;9.83;100.00;95726.44;4942905;28;20537;-70
2023/10/27 05:32:25;;;;;;;8.60;4.40;;;10.50;99.90;;;9.89;100.00;95719.19;4946384;28;20461;-71
2023/10/27 05:34:52;;;;;;;8.53;5.27;;;10.50;99.90;;;9.90;100.00;95721.59;4967106;28;20447;-70
2023/10/27 05:37:21;;;;;;;7.77;4.83;;;10.50;99.90;;;9.79;100.00;95719.97;4963897;28;20456;-71
2023/10/27 05:39:48;;;;;;;8.87;5.80;;;10.50;99.90;;;9.79;100.00;95725.38;4964259;28;20453;-72
2023/10/27 05:42:17;;;;;;;9.57;5.17;;;10.50;99.90;;;10.00;100.00;95730.78;4965085;28;20457;-69
2023/10/27 05:44:44;;;;;;;9.93;4.57;;;10.50;99.90;;;10.02;100.00;95725.94;4967629;28;20552;-72
2023/10/27 05:47:11;;;;;;;8.20;4.53;;;10.60;99.90;;;9.98;100.00;95716.78;4936694;28;20469;-72
2023/10/27 05:49:38;;;;;;;26.27;16.30;;;10.60;99.90;;;10.59;100.00;95726.78;4951885;28;20461;-68
2023/10/27 05:52:06;;;;;;;4.33;3.90;;;11.20;99.90;;;10.44;100.00;95734.88;4969562;28;20777;-68
2023/10/27 05:54:33;;;;;;;7.50;4.20;;;11.20;99.50;;;10.34;100.00;95724.88;4971861;28;20455;-70
2023/10/27 05:57:00;;;;;;;7.30;4.40;;;11.00;98.00;;;10.28;100.00;95715.16;4957686;28;20450;-71
2023/10/27 05:59:29;;;;;;;6.30;3.90;;;10.80;98.90;;;10.01;100.00;95710.81;4947104;28;20473;-71
2023/10/27 06:01:56;;;;;;;5.30;3.60;;;10.70;98.40;;;9.78;100.00;95729.13;4952796;28;20506;-68
2023/10/27 06:04:23;;;;;;;8.10;3.83;;;10.60;98.30;;;9.91;100.00;95717.03;4968212;28;20549;-68
2023/10/27 06:06:51;;;;;;;8.40;4.00;;;10.50;99.90;;;10.32;100.00;95727.03;4962976;28;20930;-69
2023/10/27 06:09:18;;;;;;;5.33;3.00;;;10.60;99.90;;;10.43;100.00;95731.38;4953991;28;20480;-69
2023/10/27 06:11:45;;;;;;;4.77;3.00;;;10.70;99.90;;;9.98;100.00;95727.56;4971934;28;20461;-69
2023/10/27 06:14:12;;;;;;;6.43;3.63;;;10.60;99.40;;;9.56;100.00;95732.84;4968975;28;20594;-70
2023/10/27 06:16:41;;;;;;;5.60;2.93;;;10.40;98.20;;;9.82;100.00;95735.63;4966566;28;20465;-70
2023/10/27 06:19:08;;;;;;;7.17;3.13;;;10.40;99.50;;;9.69;100.00;95714.56;4957155;28;20519;-69
2023/10/27 06:21:35;;;;;;;6.50;3.77;;;10.40;99.90;;;9.83;100.00;95737.25;4963884;28;20469;-68
2023/10/27 06:24:03;;;;;;;6.90;2.80;;;10.30;99.90;;;9.81;100.00;95744.78;4964151;28;20558;-71
2023/10/27 06:26:30;;;;;;;4.13;2.60;;;10.40;99.80;;;9.64;100.00;95745.00;4947440;28;20461;-71
2023/10/27 06:28:59;;;;;;;6.90;3.37;;;10.30;99.60;;;9.74;100.00;95749.63;4949609;28;20477;-69
2023/10/27 06:31:27;;;;;;;3.67;2.40;;;10.30;99.90;;;9.83;100.00;95753.44;4979298;28;20467;-69
2023/10/27 06:33:56;;;;;;;5.57;2.73;;;10.40;99.90;;;9.76;100.00;95753.69;4949140;28;20467;-70
2023/10/27 06:36:23;;;;;;;5.10;4.20;;;10.30;99.60;;;9.80;100.00;95756.66;4965782;28;20978;-69
2023/10/27 06:38:50;;;;;;;6.10;3.60;;;10.30;99.90;;;9.81;100.00;95769.06;4951073;28;20884;-70
2023/10/27 06:41:17;;;;;;;4.40;2.80;;;10.40;99.40;;;9.95;100.00;95768.56;4967416;28;20464;-70
2023/10/27 06:43:44;;;;;;;8.30;2.73;;;10.40;99.90;;;9.89;100.00;95783.91;4968496;28;20465;-69
2023/10/27 06:46:12;;;;;;;5.43;2.40;;;10.40;99.00;;;9.95;100.00;95771.25;4966334;28;20466;-70
2023/10/27 06:48:39;;;;;;;5.47;2.50;;;10.40;98.50;;;10.10;100.00;95776.69;4949587;28;20555;-69
2023/10/27 06:51:08;;;;;;;4.40;2.53;;;10.60;97.70;;;10.12;100.00;95771.81;4968472;28;21031;-68
2023/10/27 06:53:36;;;;;;;3.73;2.00;;;10.60;96.90;;;9.94;100.00;95781.22;4951830;28;21438;-69
2023/10/27 06:56:04;;;;;;;3.77;2.10;;;10.50;95.90;;;9.79;100.00;95771.22;4959384;28;20524;-68
2023/10/27 06:58:31;;;;;;;5.30;2.73;;;10.40;95.80;;;9.68;100.00;95769.56;4946706;28;20470;-68
2023/10/27 07:01:06;;;;;;;3.20;2.23;;;10.30;96.00;;;9.60;100.00;95760.09;4961847;28;20457;-68
2023/10/27 07:03:35;;;;;;;3.93;2.10;;;10.30;96.10;;;9.79;100.00;95768.53;4948697;28;20486;-67
2023/10/27 07:06:03;;;;;;;6.37;2.87;;;10.30;96.90;;;9.72;100.00;95778.72;4968280;28;20454;-67
2023/10/27 07:08:32;;;;;;;4.10;2.53;;;10.30;96.60;;;9.84;100.00;95775.78;4966761;28;20590;-68
2023/10/27 07:10:59;;;;;;;4.20;3.43;;;10.40;97.20;;;9.90;100.00;95778.25;4953604;28;20453;-69
2023/10/27 07:13:27;;;;;;;5.90;3.10;;;10.40;97.80;;;9.82;100.00;95778.78;4966142;28;20501;-67
2023/10/27 07:15:54;;;;;;;3.83;2.50;;;10.40;96.90;;;9.67;100.00;95786.81;4964595;28;20516;-68
2023/10/27 07:18:21;;;;;;;3.70;2.70;;;10.30;97.10;;;9.76;100.00;95775.25;4967391;28;21505;-67
2023/10/27 07:20:56;;;;;;;4.77;2.40;;;10.30;97.90;;;9.74;100.00;95782.78;4964199;28;20484;-66
2023/10/27 07:23:23;;;;;;;3.73;3.00;;;10.40;97.20;;;9.70;100.00;95791.66;4961163;28;20489;-65
2023/10/27 07:25:52;;;;;;;4.43;3.30;;;10.30;96.10;;;9.76;100.00;95798.69;4979802;28;20492;-64
2023/10/27 07:28:19;;;;;;;7.60;2.60;;;10.30;96.70;;;9.87;100.00;95804.94;4964640;28;20591;-66
2023/10/27 07:30:47;;;;;;;5.27;3.40;;;10.40;98.00;;;9.96;100.00;95805.25;4965293;28;20451;-65
2023/10/27 07:33:14;;;;;;;4.03;3.23;;;10.50;97.20;;;9.78;100.00;95804.63;4964400;28;20467;-65
2023/10/27 07:35:41;;;;;;;4.93;3.27;;;10.50;96.70;;;9.79;100.00;95814.38;4970692;28;20476;-66
2023/10/27 07:38:09;;;;;;;8.17;3.03;;;10.40;96.80;;;9.70;100.00;95805.16;4971505;28;20452;-67
2023/10/27 07:40:41;;;;;;;4.33;3.10;;;10.40;97.10;;;9.89;100.00;95806.28;4952958;28;20474;-66
2023/10/27 07:43:10;;;;;;;4.17;3.40;;;10.40;97.50;;;9.84;100.00;95808.97;4966030;28;20478;-67
2023/10/27 07:45:37;;;;;;;6.13;3.20;;;10.40;96.40;;;10.04;100.00;95797.44;4953142;28;20461;-66
2023/10/27 07:48:04;;;;;;;3.17;2.60;;;10.50;97.30;;;10.23;100.00;95798.81;4967319;28;20555;-66
2023/10/27 07:50:32;;;;;;;7.00;3.73;;;10.70;96.20;;;10.32;100.00;95792.63;4955902;28;20554;-65
2023/10/27 07:52:59;;;;;;;4.07;2.80;;;10.80;95.20;;;10.30;98.83;95788.56;4965578;28;20463;-66
2023/10/27 07:55:26;;;;;;;8.70;3.67;;;10.80;94.10;;;10.30;100.00;95796.66;4968645;28;20570;-65
2023/10/27 07:57:54;;;;;;;4.20;3.27;;;10.80;94.50;;;10.18;100.00;95802.31;4962217;28;20462;-66
2023/10/27 08:00:22;;;;;;;7.43;5.27;;;10.80;93.90;;;10.09;100.00;95799.34;4965597;28;20464;-66
2023/10/27 08:02:52;;;;;;;3.80;2.80;;;10.70;94.80;;;9.96;100.00;95800.66;4967164;28;20474;-65
2023/10/27 08:05:19;;;;;;;3.00;2.70;;;10.70;94.60;;;10.15;100.00;95808.22;4966926;28;20465;-66
2023/10/27 08:07:47;;;;;;;6.30;2.80;;;10.70;94.90;;;10.28;100.00;95818.53;4961214;28;20457;-66
2023/10/27 08:10:16;;;;;;;6.93;3.00;;;10.80;94.90;;;10.38;99.64;95811.53;4973281;28;20467;-66
2023/10/27 08:12:43;;;;;;;4.57;2.80;;;10.80;94.50;;;10.25;99.96;95823.66;4951300;28;20482;-66
2023/10/27 08:15:10;;;;;;;5.30;2.70;;;10.90;94.30;;;10.37;100.00;95818.78;4968352;28;20463;-67
2023/10/27 08:17:39;;;;;;;7.07;3.40;;;10.90;94.40;;;10.33;100.00;95832.03;4964105;28;20519;-68
2023/10/27 08:20:07;;;;;;;5.10;3.07;;;10.90;94.50;;;10.54;99.43;95831.25;4959212;28;20471;-68
2023/10/27 08:22:35;;;;;;;5.93;3.53;;;11.00;94.40;;;10.42;100.00;95836.94;4967601;28;20528;-68
2023/10/27 08:25:03;;;;;;;7.03;3.20;;;11.00;94.40;;;10.31;100.00;95836.06;4966397;28;20445;-66
2023/10/27 08:27:31;;;;;;;5.47;2.90;;;11.00;93.90;;;10.58;98.54;95835.06;4949056;28;20461;-65
2023/10/27 08:29:59;;;;;;;6.50;3.20;;;11.10;93.70;;;10.70;98.01;95830.22;4967929;28;20482;-66
2023/10/27 08:32:26;;;;;;;4.13;2.33;;;11.20;93.60;;;10.62;97.34;95833.44;4946242;28;20545;-66
2023/10/27 08:34:55;;;;;;;4.70;2.93;;;11.20;92.80;;;10.68;97.79;95837.75;4967111;28;20550;-66
2023/10/27 08:37:22;;;;;;;5.47;2.87;;;11.30;92.90;;;10.74;97.78;95833.16;4966887;28;20453;-66
2023/10/27 08:39:50;;;;;;;5.50;2.90;;;11.30;92.80;;;10.94;97.30;95840.47;4964845;28;20456;-68
2023/10/27 08:42:18;;;;;;;5.13;2.90;;;11.50;93.00;;;10.91;96.33;95830.22;4969761;28;20461;-67
2023/10/27 08:44:46;;;;;;;3.80;3.00;;;11.50;92.50;;;10.95;97.57;95839.38;4969563;28;20942;-66
2023/10/27 08:47:13;;;;;;;5.60;3.30;;;11.50;92.80;;;11.08;95.69;95832.63;4955459;28;20531;-67
2023/10/27 08:49:40;;;;;;;4.30;2.67;;;11.70;92.40;;;11.26;94.81;95827.75;4961143;28;20484;-66
2023/10/27 08:52:09;;;;;;;4.07;2.37;;;11.70;92.30;;;11.04;96.12;95829.66;4965127;28;20917;-67
2023/10/27 08:54:40;;;;;;;3.70;3.00;;;11.70;92.20;;;11.16;94.52;95836.69;4964694;28;20541;-67
2023/10/27 08:57:08;;;;;;;4.33;2.87;;;11.70;92.00;;;11.25;92.93;95840.44;4946263;28;20787;-67
2023/10/27 08:59:36;;;;;;;4.30;2.80;;;11.70;91.30;;;11.09;94.95;95841.53;4970113;28;20457;-67
2023/10/27 09:02:04;;;;;;;5.97;3.17;;;11.60;91.70;;;11.18;94.02;95834.50;4953066;28;20460;-66
2023/10/27 09:04:33;;;;;;;10.67;2.70;;;11.60;91.90;;;11.15;93.05;95829.66;4965113;28;20469;-66
2023/10/27 09:07:01;;;;;;;4.40;2.67;;;11.70;91.40;;;10.88;94.74;95836.16;4958311;28;20513;-65
2023/10/27 09:09:31;;;;;;;3.67;2.23;;;11.50;91.60;;;10.95;95.94;95831.28;4959494;28;20542;-66
2023/10/27 09:11:58;;;;;;;5.03;2.30;;;11.60;92.10;;;10.69;97.49;95834.00;4959214;28;20527;-67
2023/10/27 09:14:30;;;;;;;4.73;2.87;;;11.40;92.60;;;10.95;97.74;95828.56;4962057;28;20469;-66
2023/10/27 09:17:06;;;;;;;3.30;2.33;;;11.40;93.30;;;11.22;95.28;95824.75;4956366;28;20458;-65
2023/10/27 09:19:34;;;;;;;7.00;2.70;;;11.60;92.80;;;11.29;95.31;95827.97;4954808;28;20511;-67
2023/10/27 09:22:05;;;;;;;5.03;2.10;;;11.80;92.80;;;11.69;92.19;95816.50;4972255;28;20468;-66
2023/10/27 09:24:33;;;;;;;2.00;1.90;;;12.00;91.70;;;12.00;89.86;95819.09;4959778;28;20465;-66
2023/10/27 09:27:02;;;;;;;2.40;1.97;;;12.30;90.90;;;11.69;91.00;95811.94;4987242;28;20559;-66
2023/10/27 09:29:31;;;;;;;3.30;2.13;;;12.30;90.60;;;12.14;90.04;95814.72;4970570;28;20476;-66
2023/10/27 09:31:58;;;;;;;1.40;1.30;;;12.40;90.90;;;12.40;85.18;95819.97;4968650;28;20471;-66
2023/10/27 09:34:29;;;;;;;2.63;1.90;;;12.70;89.70;;;12.55;85.82;95812.84;4950316;28;20938;-66
2023/10/27 09:37:00;;;;;;;1.87;1.70;;;12.90;89.20;;;12.49;85.66;95822.91;4948958;28;20454;-66
2023/10/27 09:39:28;;;;;;;1.87;1.70;;;13.00;88.80;;;12.55;85.62;95827.16;4966173;28;20472;-66
2023/10/27 09:42:06;;;;;;;4.03;2.40;;;13.10;88.90;;;12.37;86.10;95820.53;4955372;28;20864;-65
2023/10/27 09:44:47;;;;;;;4.20;1.87;;;13.00;88.40;;;12.52;84.84;95818.81;4963161;28;20456;-65
2023/10/27 09:47:26;;;;;;;3.43;1.80;;;13.00;88.30;;;12.11;86.39;95836.09;4970199;28;20543;-67
2023/10/27 09:50:05;;;;;;;2.40;1.50;;;12.80;88.40;;;11.84;88.67;95823.78;4964715;28;21255;-65
2023/10/27 09:52:34;;;;;;;2.10;1.90;;;12.50;88.80;;;12.28;86.73;95824.91;4947798;28;20445;-66
2023/10/27 09:55:05;;;;;;;1.40;1.17;;;12.70;89.20;;;12.70;84.09;95831.69;4962984;28;21025;-66
2023/10/27 09:57:34;;;;;;;2.93;1.50;;;13.00;88.30;;;12.54;85.31;95832.88;4980222;28;20683;-66
2023/10/27 10:00:07;;;;;;;2.13;1.80;;;13.00;88.20;;;12.73;84.93;95830.28;4967464;28;20464;-66
2023/10/27 10:02:35;;;;;;;2.20;1.60;;;13.20;88.80;;;12.39;83.29;95812.13;4959165;28;20470;-66
2023/10/27 10:05:03;;;;;;;3.03;1.30;;;13.00;87.00;;;12.31;84.89;95827.06;4965042;28;20458;-66
2023/10/27 10:07:32;;;;;;;1.60;1.50;;;13.00;87.50;;;12.25;84.67;95839.81;4961200;28;20483;-66
2023/10/27 10:10:00;;;;;;;3.67;1.70;;;12.80;87.70;;;12.29;83.24;95837.38;4960937;28;20487;-66
2023/10/27 10:12:28;;;;;;;1.70;1.20;;;12.80;87.00;;;12.01;86.00;95839.66;4967547;28;20953;-65
2023/10/27 10:14:59;;;;;;;3.27;1.37;;;12.60;87.70;;;11.85;86.44;95836.22;4965333;28;20543;-66
2023/10/27 10:17:42;;;;;;;2.80;1.47;;;12.50;87.80;;;11.93;85.06;95837.53;4968521;28;20468;-65
2023/10/27 10:20:10;;;;;;;1.63;1.23;;;12.40;87.50;;;11.99;85.69;95847.25;4959538;28;20451;-67